sensor_id;sensor_type;location;lat;lon;timestamp;P1;durP1;ratioP1;P2;durP2;ratioP2
20697;SDS011;10508;50.956;4.640;2023-02-26T00:02:15;10.02;;;3.55;;
20697;SDS011;10508;50.956;4.640;2023-02-26T00:04:41;17.20;;;4.70;;
20697;SDS011;10508;50.956;4.640;2023-02-26T00:07:07;17.92;;;4.38;;
20697;SDS011;10508;50.956;4.640;2023-02-26T00:09:33;9.88;;;3.33;;
20697;SDS011;10508;50.956;4.640;2023-02-26T00:11:58;11.38;;;3.38;;
20697;SDS011;10508;50.956;4.640;2023-02-26T00:14:25;13.50;;;3.97;;
20697;SDS011;10508;50.956;4.640;2023-02-26T00:17:05;15.55;;;4.03;;
20697;SDS011;10508;50.956;4.640;2023-02-26T00:19:32;8.95;;;3.08;;
20697;SDS011;10508;50.956;4.640;2023-02-26T00:21:58;9.80;;;3.40;;
20697;SDS011;10508;50.956;4.640;2023-02-26T00:24:23;17.00;;;3.35;;
20697;SDS011;10508;50.956;4.640;2023-02-26T00:26:49;11.63;;;3.22;;
20697;SDS011;10508;50.956;4.640;2023-02-26T00:29:15;10.70;;;3.45;;
20697;SDS011;10508;50.956;4.640;2023-02-26T00:31:41;20.38;;;3.92;;
20697;SDS011;10508;50.956;4.640;2023-02-26T00:34:09;9.23;;;3.15;;
20697;SDS011;10508;50.956;4.640;2023-02-26T00:39:58;10.40;;;4.90;;
20697;SDS011;10508;50.956;4.640;2023-02-26T00:42:15;9.55;;;3.58;;
20697;SDS011;10508;50.956;4.640;2023-02-26T00:44:41;12.50;;;4.03;;
20697;SDS011;10508;50.956;4.640;2023-02-26T00:47:08;10.43;;;3.70;;
20697;SDS011;10508;50.956;4.640;2023-02-26T00:50:00;13.23;;;3.35;;
20697;SDS011;10508;50.956;4.640;2023-02-26T00:55:14;9.07;;;3.15;;
20697;SDS011;10508;50.956;4.640;2023-02-26T00:57:40;8.65;;;3.20;;
20697;SDS011;10508;50.956;4.640;2023-02-26T01:00:06;9.30;;;3.30;;
20697;SDS011;10508;50.956;4.640;2023-02-26T01:02:33;15.27;;;3.42;;
20697;SDS011;10508;50.956;4.640;2023-02-26T01:05:00;19.90;;;4.28;;
20697;SDS011;10508;50.956;4.640;2023-02-26T01:07:26;9.63;;;3.25;;
20697;SDS011;10508;50.956;4.640;2023-02-26T01:09:53;12.30;;;3.60;;
20697;SDS011;10508;50.956;4.640;2023-02-26T01:12:20;10.43;;;3.78;;
20697;SDS011;10508;50.956;4.640;2023-02-26T01:14:45;14.02;;;2.85;;
20697;SDS011;10508;50.956;4.640;2023-02-26T01:19:54;6.97;;;2.55;;
20697;SDS011;10508;50.956;4.640;2023-02-26T01:25:27;10.38;;;3.15;;
20697;SDS011;10508;50.956;4.640;2023-02-26T01:28:00;6.20;;;2.13;;
20697;SDS011;10508;50.956;4.640;2023-02-26T01:30:26;11.95;;;2.60;;
20697;SDS011;10508;50.956;4.640;2023-02-26T01:38:32;9.05;;;2.40;;
20697;SDS011;10508;50.956;4.640;2023-02-26T01:49:44;11.82;;;3.58;;
20697;SDS011;10508;50.956;4.640;2023-02-26T01:55:13;20.33;;;6.45;;
20697;SDS011;10508;50.956;4.640;2023-02-26T01:57:41;22.08;;;5.55;;
20697;SDS011;10508;50.956;4.640;2023-02-26T02:00:08;13.30;;;4.35;;
20697;SDS011;10508;50.956;4.640;2023-02-26T02:02:34;14.25;;;3.13;;
20697;SDS011;10508;50.956;4.640;2023-02-26T02:05:02;10.00;;;2.72;;
20697;SDS011;10508;50.956;4.640;2023-02-26T02:07:33;7.50;;;1.80;;
20697;SDS011;10508;50.956;4.640;2023-02-26T02:09:59;12.13;;;1.85;;
20697;SDS011;10508;50.956;4.640;2023-02-26T02:15:14;11.70;;;2.40;;
20697;SDS011;10508;50.956;4.640;2023-02-26T02:26:18;6.93;;;2.42;;
20697;SDS011;10508;50.956;4.640;2023-02-26T02:31:32;5.75;;;1.88;;
20697;SDS011;10508;50.956;4.640;2023-02-26T02:34:06;6.13;;;2.20;;
20697;SDS011;10508;50.956;4.640;2023-02-26T02:36:55;4.95;;;2.20;;
20697;SDS011;10508;50.956;4.640;2023-02-26T02:39:28;9.30;;;1.77;;
20697;SDS011;10508;50.956;4.640;2023-02-26T02:44:54;5.22;;;2.10;;
20697;SDS011;10508;50.956;4.640;2023-02-26T02:47:22;8.88;;;2.20;;
20697;SDS011;10508;50.956;4.640;2023-02-26T02:50:33;8.27;;;2.55;;
20697;SDS011;10508;50.956;4.640;2023-02-26T02:52:56;5.47;;;2.13;;
20697;SDS011;10508;50.956;4.640;2023-02-26T02:55:32;5.32;;;2.20;;
20697;SDS011;10508;50.956;4.640;2023-02-26T02:58:04;6.00;;;2.10;;
20697;SDS011;10508;50.956;4.640;2023-02-26T03:00:35;3.08;;;1.70;;
20697;SDS011;10508;50.956;4.640;2023-02-26T03:03:17;5.85;;;1.92;;
20697;SDS011;10508;50.956;4.640;2023-02-26T03:05:50;9.68;;;1.95;;
20697;SDS011;10508;50.956;4.640;2023-02-26T03:08:16;12.45;;;2.45;;
20697;SDS011;10508;50.956;4.640;2023-02-26T03:10:46;4.70;;;1.50;;
20697;SDS011;10508;50.956;4.640;2023-02-26T03:13:16;10.57;;;2.30;;
20697;SDS011;10508;50.956;4.640;2023-02-26T03:16:31;10.13;;;1.95;;
20697;SDS011;10508;50.956;4.640;2023-02-26T03:18:59;6.97;;;1.95;;
20697;SDS011;10508;50.956;4.640;2023-02-26T03:21:47;8.02;;;2.60;;
20697;SDS011;10508;50.956;4.640;2023-02-26T03:24:31;10.93;;;1.98;;
20697;SDS011;10508;50.956;4.640;2023-02-26T03:27:15;6.75;;;1.77;;
20697;SDS011;10508;50.956;4.640;2023-02-26T03:32:41;3.00;;;2.00;;
20697;SDS011;10508;50.956;4.640;2023-02-26T03:35:08;13.38;;;2.08;;
20697;SDS011;10508;50.956;4.640;2023-02-26T03:37:45;3.80;;;1.67;;
20697;SDS011;10508;50.956;4.640;2023-02-26T03:40:18;5.82;;;1.90;;
20697;SDS011;10508;50.956;4.640;2023-02-26T03:42:59;4.15;;;1.73;;
20697;SDS011;10508;50.956;4.640;2023-02-26T03:45:34;7.28;;;1.60;;
20697;SDS011;10508;50.956;4.640;2023-02-26T03:48:02;7.45;;;2.75;;
20697;SDS011;10508;50.956;4.640;2023-02-26T03:50:40;5.55;;;1.70;;
20697;SDS011;10508;50.956;4.640;2023-02-26T03:53:11;12.30;;;1.98;;
20697;SDS011;10508;50.956;4.640;2023-02-26T03:55:44;9.80;;;1.83;;
20697;SDS011;10508;50.956;4.640;2023-02-26T03:58:10;3.10;;;1.08;;
20697;SDS011;10508;50.956;4.640;2023-02-26T04:00:37;5.18;;;1.92;;
20697;SDS011;10508;50.956;4.640;2023-02-26T04:03:18;5.18;;;1.92;;
20697;SDS011;10508;50.956;4.640;2023-02-26T04:05:51;8.00;;;1.58;;
20697;SDS011;10508;50.956;4.640;2023-02-26T04:08:17;10.25;;;1.95;;
20697;SDS011;10508;50.956;4.640;2023-02-26T04:10:47;5.80;;;1.75;;
20697;SDS011;10508;50.956;4.640;2023-02-26T04:13:18;3.28;;;1.23;;
20697;SDS011;10508;50.956;4.640;2023-02-26T04:15:44;8.77;;;1.60;;
20697;SDS011;10508;50.956;4.640;2023-02-26T04:18:10;3.13;;;1.27;;
20697;SDS011;10508;50.956;4.640;2023-02-26T04:20:35;8.98;;;1.65;;
20697;SDS011;10508;50.956;4.640;2023-02-26T04:23:01;8.60;;;1.88;;
20697;SDS011;10508;50.956;4.640;2023-02-26T04:25:26;8.32;;;1.52;;
20697;SDS011;10508;50.956;4.640;2023-02-26T04:27:52;7.97;;;1.45;;
20697;SDS011;10508;50.956;4.640;2023-02-26T04:30:19;7.03;;;1.20;;
20697;SDS011;10508;50.956;4.640;2023-02-26T04:32:44;11.95;;;1.45;;
20697;SDS011;10508;50.956;4.640;2023-02-26T04:35:10;5.88;;;1.38;;
20697;SDS011;10508;50.956;4.640;2023-02-26T04:37:36;3.38;;;1.00;;
20697;SDS011;10508;50.956;4.640;2023-02-26T04:40:02;3.67;;;1.20;;
20697;SDS011;10508;50.956;4.640;2023-02-26T04:42:28;2.38;;;1.15;;
20697;SDS011;10508;50.956;4.640;2023-02-26T04:44:54;3.97;;;1.13;;
20697;SDS011;10508;50.956;4.640;2023-02-26T04:47:19;10.73;;;1.83;;
20697;SDS011;10508;50.956;4.640;2023-02-26T04:49:45;7.28;;;1.77;;
20697;SDS011;10508;50.956;4.640;2023-02-26T04:52:11;15.90;;;3.22;;
20697;SDS011;10508;50.956;4.640;2023-02-26T04:54:37;5.65;;;2.00;;
20697;SDS011;10508;50.956;4.640;2023-02-26T04:57:02;10.07;;;2.00;;
20697;SDS011;10508;50.956;4.640;2023-02-26T04:59:28;11.93;;;2.10;;
20697;SDS011;10508;50.956;4.640;2023-02-26T05:01:54;4.70;;;1.60;;
20697;SDS011;10508;50.956;4.640;2023-02-26T05:04:19;3.72;;;1.45;;
20697;SDS011;10508;50.956;4.640;2023-02-26T05:06:45;5.78;;;1.17;;
20697;SDS011;10508;50.956;4.640;2023-02-26T05:09:11;8.20;;;2.00;;
20697;SDS011;10508;50.956;4.640;2023-02-26T05:11:36;4.85;;;1.30;;
20697;SDS011;10508;50.956;4.640;2023-02-26T05:14:02;3.92;;;1.02;;
20697;SDS011;10508;50.956;4.640;2023-02-26T05:16:28;5.22;;;1.48;;
20697;SDS011;10508;50.956;4.640;2023-02-26T05:18:53;5.53;;;1.80;;
20697;SDS011;10508;50.956;4.640;2023-02-26T05:21:19;3.40;;;1.20;;
20697;SDS011;10508;50.956;4.640;2023-02-26T05:23:45;2.83;;;1.15;;
20697;SDS011;10508;50.956;4.640;2023-02-26T05:26:11;3.22;;;1.15;;
20697;SDS011;10508;50.956;4.640;2023-02-26T05:28:37;1.38;;;0.85;;
20697;SDS011;10508;50.956;4.640;2023-02-26T05:31:03;5.38;;;1.45;;
20697;SDS011;10508;50.956;4.640;2023-02-26T05:33:28;5.47;;;1.20;;
20697;SDS011;10508;50.956;4.640;2023-02-26T05:35:54;4.38;;;1.40;;
20697;SDS011;10508;50.956;4.640;2023-02-26T05:38:21;3.03;;;1.10;;
20697;SDS011;10508;50.956;4.640;2023-02-26T05:40:47;4.28;;;0.85;;
20697;SDS011;10508;50.956;4.640;2023-02-26T05:43:13;6.03;;;0.75;;
20697;SDS011;10508;50.956;4.640;2023-02-26T05:45:39;5.80;;;0.82;;
20697;SDS011;10508;50.956;4.640;2023-02-26T05:48:04;4.45;;;1.27;;
20697;SDS011;10508;50.956;4.640;2023-02-26T05:50:30;4.55;;;0.98;;
20697;SDS011;10508;50.956;4.640;2023-02-26T05:52:56;4.25;;;1.63;;
20697;SDS011;10508;50.956;4.640;2023-02-26T05:55:21;5.15;;;1.42;;
20697;SDS011;10508;50.956;4.640;2023-02-26T05:57:47;5.75;;;1.17;;
20697;SDS011;10508;50.956;4.640;2023-02-26T06:00:13;4.25;;;1.08;;
20697;SDS011;10508;50.956;4.640;2023-02-26T06:02:39;4.88;;;1.08;;
20697;SDS011;10508;50.956;4.640;2023-02-26T06:05:05;3.03;;;0.80;;
20697;SDS011;10508;50.956;4.640;2023-02-26T06:07:32;2.92;;;1.05;;
20697;SDS011;10508;50.956;4.640;2023-02-26T06:09:57;8.52;;;1.50;;
20697;SDS011;10508;50.956;4.640;2023-02-26T06:12:23;5.40;;;1.25;;
20697;SDS011;10508;50.956;4.640;2023-02-26T06:14:49;2.78;;;0.90;;
20697;SDS011;10508;50.956;4.640;2023-02-26T06:17:15;11.05;;;1.08;;
20697;SDS011;10508;50.956;4.640;2023-02-26T06:19:40;2.08;;;0.77;;
20697;SDS011;10508;50.956;4.640;2023-02-26T06:22:06;3.83;;;1.25;;
20697;SDS011;10508;50.956;4.640;2023-02-26T06:24:32;4.38;;;1.05;;
20697;SDS011;10508;50.956;4.640;2023-02-26T06:26:57;11.15;;;1.25;;
20697;SDS011;10508;50.956;4.640;2023-02-26T06:29:23;7.22;;;0.88;;
20697;SDS011;10508;50.956;4.640;2023-02-26T06:31:49;4.13;;;1.02;;
20697;SDS011;10508;50.956;4.640;2023-02-26T06:34:14;3.30;;;1.00;;
20697;SDS011;10508;50.956;4.640;2023-02-26T06:36:40;4.70;;;1.40;;
20697;SDS011;10508;50.956;4.640;2023-02-26T06:39:06;11.13;;;1.25;;
20697;SDS011;10508;50.956;4.640;2023-02-26T06:41:32;2.70;;;0.88;;
20697;SDS011;10508;50.956;4.640;2023-02-26T06:43:58;9.15;;;1.70;;
20697;SDS011;10508;50.956;4.640;2023-02-26T06:46:24;4.47;;;0.68;;
20697;SDS011;10508;50.956;4.640;2023-02-26T06:48:49;11.65;;;1.23;;
20697;SDS011;10508;50.956;4.640;2023-02-26T06:51:15;5.22;;;0.80;;
20697;SDS011;10508;50.956;4.640;2023-02-26T06:53:40;3.20;;;1.35;;
20697;SDS011;10508;50.956;4.640;2023-02-26T06:56:06;7.20;;;1.00;;
20697;SDS011;10508;50.956;4.640;2023-02-26T06:58:32;4.13;;;0.90;;
20697;SDS011;10508;50.956;4.640;2023-02-26T07:00:58;1.42;;;0.80;;
20697;SDS011;10508;50.956;4.640;2023-02-26T07:03:23;10.13;;;1.15;;
20697;SDS011;10508;50.956;4.640;2023-02-26T07:05:49;3.08;;;0.80;;
20697;SDS011;10508;50.956;4.640;2023-02-26T07:08:15;4.07;;;1.13;;
20697;SDS011;10508;50.956;4.640;2023-02-26T07:10:40;6.50;;;0.90;;
20697;SDS011;10508;50.956;4.640;2023-02-26T07:13:10;11.70;;;2.28;;
20697;SDS011;10508;50.956;4.640;2023-02-26T07:15:35;2.55;;;0.65;;
20697;SDS011;10508;50.956;4.640;2023-02-26T07:18:01;6.03;;;1.13;;
20697;SDS011;10508;50.956;4.640;2023-02-26T07:20:27;9.10;;;0.90;;
20697;SDS011;10508;50.956;4.640;2023-02-26T07:22:53;5.10;;;1.98;;
20697;SDS011;10508;50.956;4.640;2023-02-26T07:25:19;3.05;;;0.73;;
20697;SDS011;10508;50.956;4.640;2023-02-26T07:27:45;5.93;;;1.05;;
20697;SDS011;10508;50.956;4.640;2023-02-26T07:30:11;7.80;;;1.38;;
20697;SDS011;10508;50.956;4.640;2023-02-26T07:32:37;1.80;;;0.85;;
20697;SDS011;10508;50.956;4.640;2023-02-26T07:35:03;6.13;;;0.65;;
20697;SDS011;10508;50.956;4.640;2023-02-26T07:37:29;8.27;;;0.82;;
20697;SDS011;10508;50.956;4.640;2023-02-26T07:39:55;2.08;;;0.77;;
20697;SDS011;10508;50.956;4.640;2023-02-26T07:42:21;7.05;;;0.60;;
20697;SDS011;10508;50.956;4.640;2023-02-26T07:44:46;3.33;;;0.75;;
20697;SDS011;10508;50.956;4.640;2023-02-26T07:47:12;3.13;;;1.05;;
20697;SDS011;10508;50.956;4.640;2023-02-26T07:49:38;2.47;;;0.70;;
20697;SDS011;10508;50.956;4.640;2023-02-26T07:52:05;1.42;;;0.60;;
20697;SDS011;10508;50.956;4.640;2023-02-26T07:54:32;5.10;;;1.00;;
20697;SDS011;10508;50.956;4.640;2023-02-26T07:56:59;3.55;;;1.25;;
20697;SDS011;10508;50.956;4.640;2023-02-26T07:59:24;6.75;;;1.52;;
20697;SDS011;10508;50.956;4.640;2023-02-26T08:01:50;5.82;;;0.98;;
20697;SDS011;10508;50.956;4.640;2023-02-26T08:04:16;2.72;;;0.70;;
20697;SDS011;10508;50.956;4.640;2023-02-26T08:06:41;7.57;;;1.60;;
20697;SDS011;10508;50.956;4.640;2023-02-26T08:09:07;2.00;;;0.80;;
20697;SDS011;10508;50.956;4.640;2023-02-26T08:11:33;5.07;;;1.08;;
20697;SDS011;10508;50.956;4.640;2023-02-26T08:14:03;3.83;;;1.00;;
20697;SDS011;10508;50.956;4.640;2023-02-26T08:16:29;5.78;;;1.15;;
20697;SDS011;10508;50.956;4.640;2023-02-26T08:18:55;4.25;;;1.00;;
20697;SDS011;10508;50.956;4.640;2023-02-26T08:21:21;1.27;;;0.57;;
20697;SDS011;10508;50.956;4.640;2023-02-26T08:23:47;12.15;;;1.30;;
20697;SDS011;10508;50.956;4.640;2023-02-26T08:26:13;1.42;;;0.63;;
20697;SDS011;10508;50.956;4.640;2023-02-26T08:28:39;8.07;;;1.25;;
20697;SDS011;10508;50.956;4.640;2023-02-26T08:31:05;9.35;;;1.02;;
20697;SDS011;10508;50.956;4.640;2023-02-26T08:33:31;1.50;;;0.73;;
20697;SDS011;10508;50.956;4.640;2023-02-26T08:35:57;3.22;;;0.82;;
20697;SDS011;10508;50.956;4.640;2023-02-26T08:38:26;3.10;;;0.77;;
20697;SDS011;10508;50.956;4.640;2023-02-26T08:40:53;3.28;;;0.65;;
20697;SDS011;10508;50.956;4.640;2023-02-26T08:43:19;4.18;;;0.73;;
20697;SDS011;10508;50.956;4.640;2023-02-26T08:45:45;6.72;;;0.90;;
20697;SDS011;10508;50.956;4.640;2023-02-26T08:48:12;1.35;;;0.50;;
20697;SDS011;10508;50.956;4.640;2023-02-26T08:50:38;6.22;;;0.85;;
20697;SDS011;10508;50.956;4.640;2023-02-26T08:53:04;0.75;;;0.47;;
20697;SDS011;10508;50.956;4.640;2023-02-26T08:55:30;1.75;;;0.50;;
20697;SDS011;10508;50.956;4.640;2023-02-26T08:57:56;4.32;;;1.00;;
20697;SDS011;10508;50.956;4.640;2023-02-26T09:00:21;1.27;;;0.40;;
20697;SDS011;10508;50.956;4.640;2023-02-26T09:02:47;4.05;;;0.80;;
20697;SDS011;10508;50.956;4.640;2023-02-26T09:05:13;4.63;;;1.08;;
20697;SDS011;10508;50.956;4.640;2023-02-26T09:07:39;2.97;;;0.93;;
20697;SDS011;10508;50.956;4.640;2023-02-26T09:10:06;2.58;;;0.85;;
20697;SDS011;10508;50.956;4.640;2023-02-26T09:12:33;4.57;;;0.93;;
20697;SDS011;10508;50.956;4.640;2023-02-26T09:15:02;2.85;;;1.15;;
20697;SDS011;10508;50.956;4.640;2023-02-26T09:17:29;0.95;;;0.52;;
20697;SDS011;10508;50.956;4.640;2023-02-26T09:19:55;4.03;;;1.15;;
20697;SDS011;10508;50.956;4.640;2023-02-26T09:22:21;3.28;;;1.30;;
20697;SDS011;10508;50.956;4.640;2023-02-26T09:24:47;2.38;;;0.55;;
20697;SDS011;10508;50.956;4.640;2023-02-26T09:27:12;3.85;;;0.60;;
20697;SDS011;10508;50.956;4.640;2023-02-26T09:29:38;1.00;;;0.60;;
20697;SDS011;10508;50.956;4.640;2023-02-26T09:32:04;8.13;;;1.10;;
20697;SDS011;10508;50.956;4.640;2023-02-26T09:34:33;0.73;;;0.43;;
20697;SDS011;10508;50.956;4.640;2023-02-26T09:37:06;2.60;;;0.63;;
20697;SDS011;10508;50.956;4.640;2023-02-26T09:39:32;3.80;;;0.60;;
20697;SDS011;10508;50.956;4.640;2023-02-26T09:42:00;4.00;;;0.45;;
20697;SDS011;10508;50.956;4.640;2023-02-26T09:44:35;1.75;;;0.85;;
20697;SDS011;10508;50.956;4.640;2023-02-26T09:47:08;1.23;;;0.57;;
20697;SDS011;10508;50.956;4.640;2023-02-26T09:49:49;2.50;;;0.60;;
20697;SDS011;10508;50.956;4.640;2023-02-26T09:54:48;2.08;;;0.50;;
20697;SDS011;10508;50.956;4.640;2023-02-26T09:57:35;3.88;;;0.80;;
20697;SDS011;10508;50.956;4.640;2023-02-26T10:00:06;4.68;;;0.73;;
20697;SDS011;10508;50.956;4.640;2023-02-26T10:08:30;0.70;;;0.55;;
20697;SDS011;10508;50.956;4.640;2023-02-26T10:11:04;7.10;;;1.20;;
20697;SDS011;10508;50.956;4.640;2023-02-26T10:13:42;2.60;;;0.57;;
20697;SDS011;10508;50.956;4.640;2023-02-26T10:16:13;2.22;;;0.63;;
20697;SDS011;10508;50.956;4.640;2023-02-26T10:18:44;1.48;;;0.52;;
20697;SDS011;10508;50.956;4.640;2023-02-26T10:21:16;3.08;;;0.22;;
20697;SDS011;10508;50.956;4.640;2023-02-26T10:23:51;2.03;;;0.40;;
20697;SDS011;10508;50.956;4.640;2023-02-26T10:26:32;0.88;;;0.47;;
20697;SDS011;10508;50.956;4.640;2023-02-26T10:31:59;6.85;;;0.50;;
20697;SDS011;10508;50.956;4.640;2023-02-26T10:34:52;0.85;;;0.40;;
20697;SDS011;10508;50.956;4.640;2023-02-26T10:37:25;5.22;;;0.80;;
20697;SDS011;10508;50.956;4.640;2023-02-26T10:40:03;4.25;;;1.05;;
20697;SDS011;10508;50.956;4.640;2023-02-26T10:42:41;2.17;;;0.45;;
20697;SDS011;10508;50.956;4.640;2023-02-26T10:45:29;2.38;;;1.00;;
20697;SDS011;10508;50.956;4.640;2023-02-26T10:50:52;1.95;;;0.40;;
20697;SDS011;10508;50.956;4.640;2023-02-26T10:53:20;1.40;;;0.30;;
20697;SDS011;10508;50.956;4.640;2023-02-26T10:58:21;3.03;;;0.50;;
20697;SDS011;10508;50.956;4.640;2023-02-26T11:00:49;1.45;;;0.52;;
20697;SDS011;10508;50.956;4.640;2023-02-26T11:05:52;1.77;;;0.50;;
20697;SDS011;10508;50.956;4.640;2023-02-26T11:08:19;13.75;;;1.23;;
20697;SDS011;10508;50.956;4.640;2023-02-26T11:10:56;0.52;;;0.32;;
20697;SDS011;10508;50.956;4.640;2023-02-26T11:13:27;0.98;;;0.50;;
20697;SDS011;10508;50.956;4.640;2023-02-26T11:15:56;0.93;;;0.47;;
20697;SDS011;10508;50.956;4.640;2023-02-26T11:18:29;0.55;;;0.40;;
20697;SDS011;10508;50.956;4.640;2023-02-26T11:21:18;2.10;;;0.52;;
20697;SDS011;10508;50.956;4.640;2023-02-26T11:23:48;2.95;;;0.57;;
20697;SDS011;10508;50.956;4.640;2023-02-26T11:26:18;2.50;;;0.55;;
20697;SDS011;10508;50.956;4.640;2023-02-26T11:28:49;1.10;;;0.30;;
20697;SDS011;10508;50.956;4.640;2023-02-26T11:31:19;2.20;;;0.50;;
20697;SDS011;10508;50.956;4.640;2023-02-26T11:33:48;3.20;;;0.40;;
20697;SDS011;10508;50.956;4.640;2023-02-26T11:36:19;0.52;;;0.32;;
20697;SDS011;10508;50.956;4.640;2023-02-26T11:38:51;2.60;;;0.60;;
20697;SDS011;10508;50.956;4.640;2023-02-26T11:41:24;1.08;;;0.50;;
20697;SDS011;10508;50.956;4.640;2023-02-26T11:43:58;1.83;;;0.43;;
20697;SDS011;10508;50.956;4.640;2023-02-26T11:46:26;2.95;;;0.70;;
20697;SDS011;10508;50.956;4.640;2023-02-26T11:48:53;3.13;;;0.43;;
20697;SDS011;10508;50.956;4.640;2023-02-26T11:51:23;1.20;;;0.63;;
20697;SDS011;10508;50.956;4.640;2023-02-26T11:53:52;1.98;;;0.70;;
20697;SDS011;10508;50.956;4.640;2023-02-26T11:56:24;1.95;;;0.50;;
20697;SDS011;10508;50.956;4.640;2023-02-26T11:59:04;2.17;;;0.73;;
20697;SDS011;10508;50.956;4.640;2023-02-26T12:01:34;1.67;;;0.52;;
20697;SDS011;10508;50.956;4.640;2023-02-26T12:04:01;0.95;;;0.45;;
20697;SDS011;10508;50.956;4.640;2023-02-26T12:06:27;7.15;;;1.80;;
20697;SDS011;10508;50.956;4.640;2023-02-26T12:08:53;5.68;;;1.95;;
20697;SDS011;10508;50.956;4.640;2023-02-26T12:33:16;1.42;;;0.52;;
20697;SDS011;10508;50.956;4.640;2023-02-26T12:43:51;2.83;;;0.50;;
20697;SDS011;10508;50.956;4.640;2023-02-26T13:06:22;1.77;;;0.60;;
20697;SDS011;10508;50.956;4.640;2023-02-26T13:11:59;1.85;;;0.82;;
20697;SDS011;10508;50.956;4.640;2023-02-26T13:18:03;4.50;;;0.80;;
20697;SDS011;10508;50.956;4.640;2023-02-26T13:20:14;4.35;;;1.27;;
20697;SDS011;10508;50.956;4.640;2023-02-26T13:25:34;1.17;;;0.80;;
20697;SDS011;10508;50.956;4.640;2023-02-26T13:30:50;2.67;;;0.30;;
20697;SDS011;10508;50.956;4.640;2023-02-26T13:33:19;1.38;;;0.70;;
20697;SDS011;10508;50.956;4.640;2023-02-26T13:35:55;2.38;;;0.90;;
20697;SDS011;10508;50.956;4.640;2023-02-26T13:38:32;3.10;;;0.85;;
20697;SDS011;10508;50.956;4.640;2023-02-26T13:44:01;2.55;;;0.80;;
20697;SDS011;10508;50.956;4.640;2023-02-26T13:49:54;0.77;;;0.35;;
20697;SDS011;10508;50.956;4.640;2023-02-26T13:52:26;1.02;;;0.43;;
20697;SDS011;10508;50.956;4.640;2023-02-26T13:54:54;3.72;;;1.30;;
20697;SDS011;10508;50.956;4.640;2023-02-26T13:57:49;2.58;;;1.20;;
20697;SDS011;10508;50.956;4.640;2023-02-26T14:00:26;0.65;;;0.65;;
20697;SDS011;10508;50.956;4.640;2023-02-26T14:02:58;0.77;;;0.50;;
20697;SDS011;10508;50.956;4.640;2023-02-26T14:10:43;6.03;;;0.98;;
20697;SDS011;10508;50.956;4.640;2023-02-26T14:13:16;3.00;;;0.90;;
20697;SDS011;10508;50.956;4.640;2023-02-26T14:15:58;5.82;;;1.48;;
20697;SDS011;10508;50.956;4.640;2023-02-26T14:18:28;8.88;;;2.03;;
20697;SDS011;10508;50.956;4.640;2023-02-26T14:23:49;2.08;;;0.52;;
20697;SDS011;10508;50.956;4.640;2023-02-26T14:26:21;1.75;;;0.50;;
20697;SDS011;10508;50.956;4.640;2023-02-26T14:29:12;1.13;;;0.60;;
20697;SDS011;10508;50.956;4.640;2023-02-26T14:34:53;0.50;;;0.30;;
20697;SDS011;10508;50.956;4.640;2023-02-26T14:37:11;2.00;;;0.70;;
20697;SDS011;10508;50.956;4.640;2023-02-26T14:39:47;2.13;;;0.50;;
20697;SDS011;10508;50.956;4.640;2023-02-26T14:42:33;1.45;;;0.70;;
20697;SDS011;10508;50.956;4.640;2023-02-26T14:45:36;1.25;;;0.45;;
20697;SDS011;10508;50.956;4.640;2023-02-26T14:48:01;1.85;;;0.70;;
20697;SDS011;10508;50.956;4.640;2023-02-26T14:50:42;0.50;;;0.47;;
20697;SDS011;10508;50.956;4.640;2023-02-26T14:53:55;1.40;;;0.47;;
20697;SDS011;10508;50.956;4.640;2023-02-26T15:16:23;2.92;;;1.17;;
20697;SDS011;10508;50.956;4.640;2023-02-26T15:22:02;2.30;;;0.50;;
20697;SDS011;10508;50.956;4.640;2023-02-26T15:24:37;4.28;;;0.90;;
20697;SDS011;10508;50.956;4.640;2023-02-26T15:27:04;1.13;;;0.63;;
20697;SDS011;10508;50.956;4.640;2023-02-26T15:29:36;1.00;;;0.50;;
20697;SDS011;10508;50.956;4.640;2023-02-26T15:32:12;3.75;;;0.60;;
20697;SDS011;10508;50.956;4.640;2023-02-26T15:34:47;0.63;;;0.40;;
20697;SDS011;10508;50.956;4.640;2023-02-26T15:37:22;1.60;;;0.60;;
20697;SDS011;10508;50.956;4.640;2023-02-26T15:39:50;1.33;;;0.43;;
20697;SDS011;10508;50.956;4.640;2023-02-26T15:42:17;1.98;;;0.68;;
20697;SDS011;10508;50.956;4.640;2023-02-26T15:45:04;2.83;;;0.40;;
20697;SDS011;10508;50.956;4.640;2023-02-26T15:47:36;2.15;;;0.40;;
20697;SDS011;10508;50.956;4.640;2023-02-26T15:50:02;2.47;;;0.70;;
20697;SDS011;10508;50.956;4.640;2023-02-26T15:52:28;1.75;;;0.68;;
20697;SDS011;10508;50.956;4.640;2023-02-26T15:54:55;1.40;;;0.55;;
20697;SDS011;10508;50.956;4.640;2023-02-26T15:57:24;0.88;;;0.40;;
20697;SDS011;10508;50.956;4.640;2023-02-26T15:59:52;3.40;;;0.60;;
20697;SDS011;10508;50.956;4.640;2023-02-26T16:02:29;2.55;;;0.30;;
20697;SDS011;10508;50.956;4.640;2023-02-26T16:04:56;3.08;;;0.57;;
20697;SDS011;10508;50.956;4.640;2023-02-26T16:07:21;1.65;;;0.52;;
20697;SDS011;10508;50.956;4.640;2023-02-26T16:09:48;6.28;;;0.70;;
20697;SDS011;10508;50.956;4.640;2023-02-26T16:12:20;1.33;;;0.93;;
20697;SDS011;10508;50.956;4.640;2023-02-26T16:14:52;1.02;;;0.60;;
20697;SDS011;10508;50.956;4.640;2023-02-26T16:17:24;4.38;;;1.80;;
20697;SDS011;10508;50.956;4.640;2023-02-26T16:19:52;1.02;;;0.57;;
20697;SDS011;10508;50.956;4.640;2023-02-26T16:22:26;1.98;;;0.63;;
20697;SDS011;10508;50.956;4.640;2023-02-26T16:27:40;1.83;;;0.63;;
20697;SDS011;10508;50.956;4.640;2023-02-26T16:30:12;1.67;;;0.55;;
20697;SDS011;10508;50.956;4.640;2023-02-26T16:32:44;1.23;;;0.70;;
20697;SDS011;10508;50.956;4.640;2023-02-26T16:35:15;2.60;;;0.60;;
20697;SDS011;10508;50.956;4.640;2023-02-26T16:37:46;1.95;;;1.00;;
20697;SDS011;10508;50.956;4.640;2023-02-26T16:40:23;0.85;;;0.52;;
20697;SDS011;10508;50.956;4.640;2023-02-26T16:43:05;2.80;;;0.65;;
20697;SDS011;10508;50.956;4.640;2023-02-26T16:45:56;1.00;;;0.47;;
20697;SDS011;10508;50.956;4.640;2023-02-26T16:51:10;2.42;;;0.40;;
20697;SDS011;10508;50.956;4.640;2023-02-26T16:53:43;1.60;;;0.55;;
20697;SDS011;10508;50.956;4.640;2023-02-26T16:56:14;2.70;;;0.85;;
20697;SDS011;10508;50.956;4.640;2023-02-26T16:58:47;2.67;;;0.93;;
20697;SDS011;10508;50.956;4.640;2023-02-26T17:01:38;7.03;;;2.30;;
20697;SDS011;10508;50.956;4.640;2023-02-26T17:04:26;5.43;;;1.42;;
20697;SDS011;10508;50.956;4.640;2023-02-26T17:06:54;3.13;;;1.13;;
20697;SDS011;10508;50.956;4.640;2023-02-26T17:09:37;5.45;;;2.97;;
20697;SDS011;10508;50.956;4.640;2023-02-26T17:14:38;4.30;;;1.38;;
20697;SDS011;10508;50.956;4.640;2023-02-26T17:17:06;5.47;;;1.40;;
20697;SDS011;10508;50.956;4.640;2023-02-26T17:19:32;1.60;;;0.68;;
20697;SDS011;10508;50.956;4.640;2023-02-26T17:21:58;7.03;;;1.50;;
20697;SDS011;10508;50.956;4.640;2023-02-26T17:24:45;1.52;;;0.88;;
20697;SDS011;10508;50.956;4.640;2023-02-26T17:27:22;2.67;;;0.68;;
20697;SDS011;10508;50.956;4.640;2023-02-26T17:29:51;3.03;;;1.10;;
20697;SDS011;10508;50.956;4.640;2023-02-26T17:32:21;2.97;;;1.02;;
20697;SDS011;10508;50.956;4.640;2023-02-26T17:34:50;9.75;;;0.73;;
20697;SDS011;10508;50.956;4.640;2023-02-26T17:37:17;5.22;;;1.02;;
20697;SDS011;10508;50.956;4.640;2023-02-26T17:39:43;3.47;;;0.90;;
20697;SDS011;10508;50.956;4.640;2023-02-26T17:42:13;1.80;;;1.00;;
20697;SDS011;10508;50.956;4.640;2023-02-26T17:44:47;3.00;;;0.65;;
20697;SDS011;10508;50.956;4.640;2023-02-26T17:47:14;3.20;;;1.00;;
20697;SDS011;10508;50.956;4.640;2023-02-26T17:49:41;2.22;;;0.70;;
20697;SDS011;10508;50.956;4.640;2023-02-26T17:52:07;8.55;;;1.75;;
20697;SDS011;10508;50.956;4.640;2023-02-26T17:54:33;4.70;;;1.88;;
20697;SDS011;10508;50.956;4.640;2023-02-26T17:56:58;4.40;;;1.50;;
20697;SDS011;10508;50.956;4.640;2023-02-26T17:59:24;8.98;;;2.35;;
20697;SDS011;10508;50.956;4.640;2023-02-26T18:01:50;6.80;;;2.20;;